Time;durP1;ratioP1;P1;durP2;ratioP2;P2;SDS_P1;SDS_P2;PMS_P1;PMS_P2;Temp;Humidity;BMP_temperature;BMP_pressure;BME280_temperature;BME280_humidity;BME280_pressure;Samples;Min_cycle;Max_cycle;Signal;HPM_P1;HPM_P2
2020/12/16 00:00:15;;;;;;;36.88;21.30;;;;;;;2.91;100.00;96086.19;1020692;29;20443;-77
2020/12/16 00:00:47;;;;;;;36.55;21.90;;;;;;;3.00;100.00;96096.78;1024546;29;20019;-76
2020/12/16 00:01:17;;;;;;;39.33;22.48;;;;;;;3.00;100.00;96091.53;1036516;28;20018;-77
2020/12/16 00:01:52;;;;;;;36.75;21.55;;;;;;;2.92;100.00;96078.19;1028544;28;20113;-77
2020/12/16 00:02:23;;;;;;;40.25;23.20;;;;;;;2.93;100.00;96079.06;1028644;28;20021;-77
2020/12/16 00:02:54;;;;;;;40.30;22.25;;;;;;;3.04;100.00;96097.34;1024518;28;20073;-77
2020/12/16 00:03:25;;;;;;;48.78;24.95;;;;;;;3.05;100.00;96092.94;1024662;28;20101;-77
2020/12/16 00:03:56;;;;;;;44.33;24.48;;;;;;;3.01;100.00;96098.44;1020585;29;20054;-77
2020/12/16 00:04:26;;;;;;;42.88;24.88;;;;;;;3.01;100.00;96097.59;1024650;28;20066;-77
2020/12/16 00:04:57;;;;;;;46.65;25.52;;;;;;;2.93;100.00;96082.50;1024513;28;20071;-77
2020/12/16 00:05:28;;;;;;;47.58;24.70;;;;;;;2.81;100.00;96065.97;1036564;28;20053;-77
2020/12/16 00:05:59;;;;;;;46.65;25.52;;;;;;;2.92;100.00;96075.56;1028573;28;20030;-77
2020/12/16 00:06:30;;;;;;;44.40;24.55;;;;;;;3.06;100.00;96095.44;1024454;29;20023;-77
2020/12/16 00:07:00;;;;;;;43.75;25.23;;;;;;;3.08;100.00;96087.44;1024589;29;20023;-77
2020/12/16 00:07:31;;;;;;;48.15;25.98;;;;;;;3.06;100.00;96087.56;1024598;28;20037;-77
2020/12/16 00:08:02;;;;;;;48.30;24.27;;;;;;;3.06;100.00;96090.19;1024695;29;20118;-77
2020/12/16 00:08:32;;;;;;;51.00;25.75;;;;;;;2.95;100.00;96077.13;1024587;28;20023;-78
2020/12/16 00:09:03;;;;;;;49.95;26.38;;;;;;;3.05;100.00;96091.16;1028481;28;20157;-77
2020/12/16 00:09:34;;;;;;;54.00;27.73;;;;;;;3.00;100.00;96080.22;1028823;28;20085;-77
2020/12/16 00:10:07;;;;;;;49.28;27.00;;;;;;;3.02;100.00;96080.91;1024369;29;20039;-78
2020/12/16 00:10:38;;;;;;;50.83;26.67;;;;;;;2.98;100.00;96076.88;1020085;29;20027;-77
2020/12/16 00:11:09;;;;;;;55.47;28.33;;;;;;;3.01;100.00;96094.97;1035935;28;20071;-77
2020/12/16 00:11:40;;;;;;;55.00;27.00;;;;;;;3.03;100.00;96093.09;1031740;28;20026;-78
2020/12/16 00:12:11;;;;;;;52.25;26.73;;;;;;;3.04;100.00;96096.53;1032035;28;20041;-77
2020/12/16 00:12:42;;;;;;;58.85;28.13;;;;;;;2.95;100.00;96087.63;1032156;28;20028;-78
2020/12/16 00:13:13;;;;;;;54.33;27.73;;;;;;;2.93;100.00;96084.28;1028018;28;20533;-77
2020/12/16 00:13:44;;;;;;;50.28;26.92;;;;;;;3.02;100.00;96097.47;1036202;28;20073;-77
2020/12/16 00:14:15;;;;;;;49.83;26.40;;;;;;;3.04;100.00;96104.41;1032178;28;20022;-77
2020/12/16 00:14:46;;;;;;;48.15;26.35;;;;;;;3.04;100.00;96096.53;1024063;28;20023;-77
2020/12/16 00:15:16;;;;;;;54.75;27.25;;;;;;;2.89;100.00;96083.72;1040199;28;20029;-77
2020/12/16 00:15:47;;;;;;;59.92;27.42;;;;;;;2.88;100.00;96110.88;1028314;28;20075;-78
2020/12/16 00:16:18;;;;;;;58.75;28.17;;;;;;;2.91;100.00;96100.16;1036923;28;20405;-78
2020/12/16 00:16:49;;;;;;;60.42;28.70;;;;;;;2.91;100.00;96104.53;1032194;28;20026;-79
2020/12/16 00:17:19;;;;;;;54.97;29.23;;;;;;;2.92;100.00;96104.44;1036845;28;20105;-78
2020/12/16 00:17:50;;;;;;;64.28;28.83;;;;;;;2.92;100.00;96104.44;1028170;28;20038;-77
2020/12/16 00:18:21;;;;;;;47.83;26.30;;;;;;;2.91;100.00;96107.16;1028075;28;20025;-77
2020/12/16 00:18:51;;;;;;;47.53;25.13;;;;;;;2.90;100.00;96108.16;1027961;28;20019;-77
2020/12/16 00:19:22;;;;;;;47.83;23.63;;;;;;;2.91;100.00;96110.66;1036152;28;20030;-77
2020/12/16 00:19:53;;;;;;;49.90;26.98;;;;;;;2.78;100.00;96084.56;1024022;28;20046;-77
2020/12/16 00:20:24;;;;;;;52.80;27.73;;;;;;;2.90;100.00;96110.78;1036126;28;20026;-77
2020/12/16 00:20:54;;;;;;;53.83;27.23;;;;;;;2.92;100.00;96116.72;1023869;29;20026;-77
2020/12/16 00:21:25;;;;;;;40.78;23.83;;;;;;;2.91;100.00;96110.66;1036109;28;20061;-77
2020/12/16 00:22:03;;;;;;;40.35;22.08;;;;;;;2.91;100.00;96115.03;1036115;28;20030;-77
2020/12/16 00:22:41;;;;;;;47.55;25.27;;;;;;;2.81;100.00;96107.09;1036066;28;20505;-77
2020/12/16 00:23:12;;;;;;;58.08;27.73;;;;;;;2.84;100.00;96114.72;1028007;28;20031;-77
2020/12/16 00:23:43;;;;;;;50.38;24.85;;;;;;;2.76;100.00;96098.78;1028225;28;20053;-77
2020/12/16 00:24:14;;;;;;;46.40;24.73;;;;;;;2.86;100.00;96118.06;1032182;28;20144;-77
2020/12/16 00:24:45;;;;;;;45.88;25.10;;;;;;;2.86;100.00;96120.69;1020155;28;20027;-77
2020/12/16 00:25:15;;;;;;;43.70;24.25;;;;;;;2.86;100.00;96125.06;1027882;28;20483;-77
2020/12/16 00:25:46;;;;;;;45.42;24.95;;;;;;;2.83;100.00;96120.91;1032061;28;20030;-78
2020/12/16 00:26:17;;;;;;;52.05;26.38;;;;;;;2.84;100.00;96125.22;1024114;29;20023;-77
2020/12/16 00:26:48;;;;;;;56.17;27.15;;;;;;;2.78;100.00;96116.03;1032028;28;20085;-76
2020/12/16 00:27:19;;;;;;;66.95;30.17;;;;;;;2.59;100.00;96105.38;1027950;28;20462;-77
2020/12/16 00:27:49;;;;;;;63.97;27.90;;;;;;;2.68;100.00;96112.47;1016265;29;20034;-77
2020/12/16 00:28:20;;;;;;;46.72;24.48;;;;;;;2.69;100.00;96108.91;1032049;28;20034;-77
2020/12/16 00:28:51;;;;;;;63.75;28.90;;;;;;;2.69;100.00;96111.53;1031876;28;20410;-77
2020/12/16 00:29:22;;;;;;;44.72;25.13;;;;;;;2.77;100.00;96126.63;1032293;28;20054;-78
2020/12/16 00:29:53;;;;;;;43.70;23.98;;;;;;;2.69;100.00;96108.91;1031928;28;21536;-77
2020/12/16 00:30:23;;;;;;;38.30;21.58;;;;;;;2.76;100.00;96122.38;1032114;28;20065;-78
2020/12/16 00:30:54;;;;;;;42.50;23.83;;;;;;;2.76;100.00;96128.44;1024042;29;20025;-77
2020/12/16 00:31:25;;;;;;;45.90;24.88;;;;;;;2.78;100.00;96128.31;1032137;28;20089;-78
2020/12/16 00:31:56;;;;;;;53.20;27.52;;;;;;;2.72;100.00;96123.59;1032083;28;20030;-77
2020/12/16 00:32:27;;;;;;;43.83;24.25;;;;;;;2.60;100.00;96099.19;1027994;28;20022;-77
2020/12/16 00:32:57;;;;;;;64.70;28.40;;;;;;;2.66;100.00;96113.56;1023926;29;20028;-77
2020/12/16 00:33:28;;;;;;;70.00;31.30;;;;;;;2.62;100.00;96115.59;1032055;28;20022;-77
2020/12/16 00:34:00;;;;;;;62.45;31.10;;;;;;;2.63;100.00;96117.28;1023996;28;20118;-76
2020/12/16 00:34:32;;;;;;;73.82;30.10;;;;;;;2.57;100.00;96109.91;1032095;28;20041;-77
2020/12/16 00:35:04;;;;;;;53.42;26.73;;;;;;;2.65;100.00;96123.25;1027898;28;20025;-77
2020/12/16 00:35:35;;;;;;;67.38;29.35;;;;;;;2.62;100.00;96120.84;1028084;28;20023;-77
2020/12/16 00:36:06;;;;;;;65.43;30.65;;;;;;;2.61;100.00;96125.28;1032028;28;20034;-77
2020/12/16 00:36:38;;;;;;;56.78;27.38;;;;;;;2.47;100.00;96101.91;1032022;28;20022;-77
2020/12/16 00:37:09;;;;;;;68.03;31.48;;;;;;;2.49;100.00;96099.19;1035815;28;20174;-76
2020/12/16 00:37:41;;;;;;;65.30;29.38;;;;;;;2.45;100.00;96107.28;1032028;28;20069;-77
2020/12/16 00:38:12;;;;;;;59.65;30.40;;;;;;;2.49;100.00;96102.66;1027979;28;20137;-77
2020/12/16 00:38:44;;;;;;;65.70;30.70;;;;;;;2.55;100.00;96122.31;1032124;28;20029;-76
2020/12/16 00:39:15;;;;;;;70.75;31.92;;;;;;;2.56;100.00;96118.72;1031921;28;20125;-77
2020/12/16 00:39:45;;;;;;;82.22;35.03;;;;;;;2.45;100.00;96106.47;1036118;28;20493;-78
2020/12/16 00:40:17;;;;;;;87.53;34.88;;;;;;;2.54;100.00;96116.19;1035970;28;20025;-77
2020/12/16 00:40:48;;;;;;;48.08;26.08;;;;;;;2.52;100.00;96123.38;1031977;28;20033;-77
2020/12/16 00:41:19;;;;;;;59.13;29.05;;;;;;;2.40;100.00;96106.84;1031988;28;20022;-77
2020/12/16 00:41:49;;;;;;;58.65;27.52;;;;;;;2.52;100.00;96122.53;1020037;29;20020;-77
2020/12/16 00:42:20;;;;;;;54.55;27.48;;;;;;;2.51;100.00;96115.63;1032031;28;20165;-77
2020/12/16 00:42:51;;;;;;;48.83;26.02;;;;;;;2.51;100.00;96116.47;1032139;28;20022;-78
2020/12/16 00:43:22;;;;;;;58.22;28.90;;;;;;;2.50;100.00;96121.84;1031910;28;20438;-77
2020/12/16 00:43:53;;;;;;;60.92;28.27;;;;;;;2.50;100.00;96121.84;1032141;28;20022;-77
2020/12/16 00:44:23;;;;;;;61.45;30.08;;;;;;;2.40;100.00;96104.22;1023945;29;20022;-78
2020/12/16 00:44:54;;;;;;;57.92;29.20;;;;;;;2.23;100.00;96081.13;1035907;28;20068;-77
2020/12/16 00:45:25;;;;;;;50.50;27.02;;;;;;;2.44;100.00;96112.69;1031867;28;20020;-77
2020/12/16 00:45:56;;;;;;;49.55;27.15;;;;;;;2.44;100.00;96115.28;1020499;29;20016;-78
2020/12/16 00:46:27;;;;;;;62.70;30.42;;;;;;;2.41;100.00;96121.59;1028409;28;20049;-78
2020/12/16 00:46:57;;;;;;;56.47;28.45;;;;;;;2.43;100.00;96118.84;1032320;28;20022;-77
2020/12/16 00:47:32;;;;;;;50.08;27.48;;;;;;;2.43;100.00;96114.44;1032438;28;20041;-77
2020/12/16 00:48:03;;;;;;;55.28;26.83;;;;;;;2.33;100.00;96102.19;1028302;28;20025;-77
2020/12/16 00:48:33;;;;;;;58.88;28.85;;;;;;;2.44;100.00;96112.69;1020497;29;20051;-78
2020/12/16 00:49:04;;;;;;;59.95;29.55;;;;;;;2.44;100.00;96120.53;1028188;28;20061;-77
2020/12/16 00:49:35;;;;;;;50.63;26.25;;;;;;;2.40;100.00;96108.63;1032497;28;20052;-78
2020/12/16 00:50:06;;;;;;;61.00;29.63;;;;;;;2.45;100.00;96122.19;1032329;28;20483;-78
2020/12/16 00:50:37;;;;;;;62.15;30.50;;;;;;;2.34;100.00;96104.69;1024294;28;20030;-77
2020/12/16 00:51:08;;;;;;;78.80;31.48;;;;;;;2.38;100.00;96116.59;1027897;28;20041;-77
2020/12/16 00:51:39;;;;;;;51.72;26.55;;;;;;;2.41;100.00;96115.53;1032394;28;20559;-77
2020/12/16 00:52:10;;;;;;;45.38;24.98;;;;;;;2.42;100.00;96118.03;1028217;28;20066;-77
2020/12/16 00:52:41;;;;;;;47.85;24.80;;;;;;;2.44;100.00;96118.75;1028343;28;20027;-77
2020/12/16 00:53:11;;;;;;;48.33;25.50;;;;;;;2.18;100.00;96070.19;1032081;28;20029;-77
2020/12/16 00:53:42;;;;;;;55.17;28.35;;;;;;;2.33;100.00;96096.94;1024456;28;20552;-77
2020/12/16 00:54:13;;;;;;;60.88;29.95;;;;;;;2.44;100.00;96116.13;1036574;28;20026;-78
2020/12/16 00:54:44;;;;;;;54.50;27.50;;;;;;;2.45;100.00;96111.69;1027946;28;20034;-77
2020/12/16 00:55:15;;;;;;;58.97;28.63;;;;;;;2.45;100.00;96117.78;1027798;28;20502;-77
2020/12/16 00:55:45;;;;;;;54.28;26.60;;;;;;;2.45;100.00;96114.31;1036049;28;20056;-77
2020/12/16 00:56:16;;;;;;;56.58;28.35;;;;;;;2.45;100.00;96115.16;1031934;28;20026;-77
2020/12/16 00:56:47;;;;;;;51.17;27.38;;;;;;;2.48;100.00;96110.66;1027917;28;20023;-77
2020/12/16 00:57:19;;;;;;;61.35;29.95;;;;;;;2.47;100.00;96114.19;1019761;29;20023;-77
2020/12/16 00:57:50;;;;;;;62.38;30.27;;;;;;;2.45;100.00;96115.16;1027955;28;20065;-77
2020/12/16 00:58:20;;;;;;;54.25;28.23;;;;;;;2.37;100.00;96099.22;1023845;29;20531;-77
2020/12/16 00:58:51;;;;;;;56.65;28.08;;;;;;;2.43;100.00;96111.81;1027935;28;20023;-77
2020/12/16 00:59:22;;;;;;;54.13;27.35;;;;;;;2.37;100.00;96104.47;1023927;28;20110;-77
2020/12/16 00:59:52;;;;;;;55.22;26.55;;;;;;;2.44;100.00;96110.88;1032429;28;20026;-78
2020/12/16 01:00:23;;;;;;;47.95;26.80;;;;;;;2.44;100.00;96110.88;1032572;28;20395;-77
2020/12/16 01:00:54;;;;;;;56.88;28.30;;;;;;;2.42;100.00;96115.41;1024238;28;20035;-77
2020/12/16 01:01:28;;;;;;;57.75;28.05;;;;;;;2.41;100.00;96120.78;1024328;28;20391;-77
2020/12/16 01:01:59;;;;;;;50.17;26.80;;;;;;;2.39;100.00;96120.88;1032081;28;20521;-77
2020/12/16 01:02:30;;;;;;;46.80;25.23;;;;;;;2.40;100.00;96121.72;1040058;28;20024;-77
2020/12/16 01:03:00;;;;;;;60.08;27.92;;;;;;;2.34;100.00;96114.34;1015936;29;20028;-77
2020/12/16 01:03:31;;;;;;;65.80;30.27;;;;;;;2.35;100.00;96121.25;1031893;28;20026;-78
2020/12/16 01:04:02;;;;;;;73.47;33.28;;;;;;;2.25;100.00;96126.38;1028106;28;20476;-77
2020/12/16 01:04:33;;;;;;;70.15;31.50;;;;;;;2.17;100.00;96099.94;1031930;28;20026;-78
2020/12/16 01:05:04;;;;;;;66.28;32.38;;;;;;;2.29;100.00;96124.38;1023873;29;20089;-76
2020/12/16 01:05:34;;;;;;;77.00;32.28;;;;;;;2.24;100.00;96130.78;1023920;28;20027;-77
2020/12/16 01:06:05;;;;;;;80.28;31.92;;;;;;;2.22;100.00;96131.88;1032018;28;20026;-77
2020/12/16 01:06:37;;;;;;;73.20;32.08;;;;;;;2.20;100.00;96128.53;1024156;29;20090;-78
2020/12/16 01:07:08;;;;;;;79.63;34.20;;;;;;;2.14;100.00;96116.72;1027773;28;20125;-77
2020/12/16 01:07:39;;;;;;;58.30;29.25;;;;;;;2.13;100.00;96117.69;1031954;28;20053;-78
2020/12/16 01:08:10;;;;;;;80.95;33.42;;;;;;;2.14;100.00;96123.75;1027917;28;20507;-77
2020/12/16 01:08:40;;;;;;;78.68;32.55;;;;;;;2.17;100.00;96131.38;1027942;28;20022;-77
2020/12/16 01:09:11;;;;;;;68.97;30.25;;;;;;;2.18;100.00;96133.88;1027769;28;20026;-77
2020/12/16 01:09:42;;;;;;;63.13;29.50;;;;;;;2.08;100.00;96111.97;1032055;28;20065;-78
2020/12/16 01:10:14;;;;;;;60.20;29.60;;;;;;;2.13;100.00;96127.34;1027855;28;20023;-77
2020/12/16 01:10:45;;;;;;;59.83;29.27;;;;;;;2.23;100.00;96134.38;1039976;28;20549;-76
2020/12/16 01:11:16;;;;;;;58.85;29.85;;;;;;;2.25;100.00;96137.69;1035892;28;20029;-76
2020/12/16 01:11:47;;;;;;;59.78;29.02;;;;;;;2.19;100.00;96124.25;1031792;28;20027;-76
2020/12/16 01:12:17;;;;;;;61.90;29.13;;;;;;;2.20;100.00;96128.53;1027842;28;20023;-77
2020/12/16 01:12:49;;;;;;;61.03;29.52;;;;;;;2.29;100.00;96140.09;1019975;29;20027;-76
2020/12/16 01:13:19;;;;;;;57.28;29.13;;;;;;;2.24;100.00;96143.06;1036665;28;20105;-78
2020/12/16 01:13:50;;;;;;;63.40;30.42;;;;;;;2.28;100.00;96141.84;1024143;28;20023;-77
2020/12/16 01:14:21;;;;;;;63.85;29.30;;;;;;;2.15;100.00;96120.19;1023863;29;20516;-77
2020/12/16 01:14:52;;;;;;;63.45;29.83;;;;;;;2.21;100.00;96127.56;1031771;28;20108;-77
2020/12/16 01:15:23;;;;;;;55.80;28.95;;;;;;;2.30;100.00;96139.13;1023897;28;20199;-78
2020/12/16 01:15:54;;;;;;;59.50;29.02;;;;;;;2.18;100.00;96117.34;1024754;28;20119;-78
2020/12/16 01:16:25;;;;;;;65.22;30.48;;;;;;;2.30;100.00;96147.81;1024066;29;20078;-77
2020/12/16 01:16:56;;;;;;;50.17;26.45;;;;;;;2.31;100.00;96139.00;1036073;28;20033;-77
2020/12/16 01:17:26;;;;;;;45.08;24.60;;;;;;;2.18;100.00;96120.78;1027870;28;20523;-77
2020/12/16 01:17:57;;;;;;;64.80;30.58;;;;;;;2.31;100.00;96136.38;1031880;28;20050;-77
2020/12/16 01:18:28;;;;;;;60.05;30.83;;;;;;;2.27;100.00;96140.19;1027934;28;20019;-77
2020/12/16 01:18:59;;;;;;;57.08;29.45;;;;;;;2.29;100.00;96137.47;1031812;28;20027;-76
2020/12/16 01:19:30;;;;;;;56.25;29.00;;;;;;;2.19;100.00;96125.06;1023854;29;20027;-77
2020/12/16 01:20:00;;;;;;;50.42;27.10;;;;;;;2.34;100.00;96146.63;1027916;28;20074;-78
2020/12/16 01:20:31;;;;;;;59.45;29.45;;;;;;;2.36;100.00;96151.75;1027883;28;20034;-77
2020/12/16 01:21:02;;;;;;;60.15;28.38;;;;;;;2.30;100.00;96132.09;1019794;29;20027;-77
2020/12/16 01:21:35;;;;;;;60.75;29.20;;;;;;;2.32;100.00;96143.28;1031945;28;20037;-77
2020/12/16 01:22:06;;;;;;;64.85;32.03;;;;;;;2.32;100.00;96145.09;1035957;28;20152;-77
2020/12/16 01:22:47;;;;;;;53.92;27.73;;;;;;;2.33;100.00;96139.69;1028068;28;20516;-78
2020/12/16 01:23:18;;;;;;;66.03;30.92;;;;;;;2.34;100.00;96138.75;1019821;29;20506;-77
2020/12/16 01:23:48;;;;;;;66.78;30.65;;;;;;;2.18;100.00;96119.97;1027988;28;20038;-77
2020/12/16 01:24:19;;;;;;;60.85;29.42;;;;;;;2.32;100.00;96143.28;1031959;28;20023;-77
2020/12/16 01:24:50;;;;;;;70.53;31.00;;;;;;;2.33;100.00;96146.75;1027805;28;20065;-77
2020/12/16 01:25:21;;;;;;;61.60;30.27;;;;;;;2.31;100.00;96141.63;1023768;29;20487;-77
2020/12/16 01:25:52;;;;;;;61.80;31.58;;;;;;;2.31;100.00;96136.38;1027905;28;20502;-78
2020/12/16 01:26:22;;;;;;;64.05;31.30;;;;;;;2.17;100.00;96119.13;1027800;28;20034;-77
2020/12/16 01:26:54;;;;;;;70.97;30.90;;;;;;;2.32;100.00;96137.22;1031951;28;20022;-76
2020/12/16 01:27:25;;;;;;;73.03;32.80;;;;;;;2.21;100.00;96120.56;1027923;28;20523;-77
2020/12/16 01:27:59;;;;;;;81.60;34.38;;;;;;;2.20;100.00;96120.69;1027853;28;20027;-77
2020/12/16 01:28:29;;;;;;;69.53;31.50;;;;;;;2.27;100.00;96129.72;1035910;28;20026;-77
2020/12/16 01:29:00;;;;;;;66.30;31.33;;;;;;;2.26;100.00;96128.91;1027805;28;20022;-77
2020/12/16 01:29:31;;;;;;;69.93;30.98;;;;;;;2.15;100.00;96107.94;1035909;28;20030;-77
2020/12/16 01:30:04;;;;;;;70.47;33.17;;;;;;;2.31;100.00;96133.75;1019826;29;20052;-77
2020/12/16 01:30:35;;;;;;;61.80;29.67;;;;;;;2.32;100.00;96121.50;1027830;28;20039;-77
2020/12/16 01:31:05;;;;;;;65.07;30.40;;;;;;;2.32;100.00;96127.56;1035701;28;20612;-76
2020/12/16 01:31:39;;;;;;;56.33;28.52;;;;;;;2.30;100.00;96132.09;1027884;28;20034;-77
2020/12/16 01:32:11;;;;;;;63.65;30.40;;;;;;;2.26;100.00;96128.03;1031861;28;20251;-77
2020/12/16 01:32:42;;;;;;;55.78;30.02;;;;;;;2.17;100.00;96107.81;1027858;28;20046;-77
2020/12/16 01:33:13;;;;;;;50.70;27.42;;;;;;;2.28;100.00;96127.91;1035770;28;20445;-77
2020/12/16 01:33:43;;;;;;;52.80;26.98;;;;;;;2.25;100.00;96129.00;1031933;28;20077;-77
2020/12/16 01:34:19;;;;;;;52.17;27.08;;;;;;;2.25;100.00;96131.63;1031877;28;20473;-77
2020/12/16 01:34:50;;;;;;;53.90;27.55;;;;;;;2.22;100.00;96122.22;1027757;28;20048;-76
2020/12/16 01:35:22;;;;;;;56.90;27.30;;;;;;;2.18;100.00;96114.72;1031833;28;20057;-77
2020/12/16 01:35:53;;;;;;;45.53;24.38;;;;;;;2.30;100.00;96126.88;1031850;28;20019;-77
2020/12/16 01:36:23;;;;;;;52.72;26.95;;;;;;;2.27;100.00;96116.63;1023968;28;20498;-78
2020/12/16 01:36:54;;;;;;;49.40;26.13;;;;;;;2.30;100.00;96121.63;1027735;28;20015;-77
2020/12/16 01:37:25;;;;;;;50.97;26.60;;;;;;;2.23;100.00;96112.56;1027995;28;20022;-77
2020/12/16 01:37:56;;;;;;;51.20;26.48;;;;;;;2.34;100.00;96124.84;1036059;28;20052;-79
2020/12/16 01:38:27;;;;;;;51.25;27.02;;;;;;;2.33;100.00;96120.53;1031824;28;20385;-77
2020/12/16 01:38:58;;;;;;;45.30;24.80;;;;;;;2.35;100.00;96123.88;1027808;28;20023;-77
2020/12/16 01:39:29;;;;;;;49.22;26.00;;;;;;;2.35;100.00;96132.59;1027885;28;20545;-77
2020/12/16 01:40:00;;;;;;;52.05;25.58;;;;;;;2.36;100.00;96128.16;1031958;28;20081;-77
2020/12/16 01:40:30;;;;;;;52.33;26.85;;;;;;;2.33;100.00;96117.91;1031847;28;20014;-77
2020/12/16 01:41:04;;;;;;;52.25;27.25;;;;;;;2.39;100.00;96130.56;1023705;28;20537;-76
2020/12/16 01:41:38;;;;;;;54.90;27.60;;;;;;;2.38;100.00;96121.84;1027985;28;20126;-77
2020/12/16 01:42:09;;;;;;;55.38;27.88;;;;;;;2.39;100.00;96130.56;1027868;28;20047;-77
2020/12/16 01:42:40;;;;;;;54.42;27.55;;;;;;;2.35;100.00;96126.47;1031901;28;20028;-77
2020/12/16 01:43:11;;;;;;;51.30;27.42;;;;;;;2.34;100.00;96124.84;1027781;28;20015;-77
2020/12/16 01:43:42;;;;;;;48.95;25.50;;;;;;;2.20;100.00;96107.56;1027941;28;20023;-78
2020/12/16 01:44:14;;;;;;;58.78;28.58;;;;;;;2.31;100.00;96132.94;1023818;29;20042;-77
2020/12/16 01:44:45;;;;;;;49.75;26.73;;;;;;;2.26;100.00;96122.81;1019787;29;20027;-77
2020/12/16 01:45:19;;;;;;;50.85;26.75;;;;;;;2.30;100.00;96126.00;1027612;28;20019;-77
2020/12/16 01:45:50;;;;;;;49.97;26.27;;;;;;;2.31;100.00;96128.50;1023798;29;20111;-77
2020/12/16 01:46:23;;;;;;;57.85;28.58;;;;;;;2.19;100.00;96113.75;1023820;29;20046;-77
2020/12/16 01:46:55;;;;;;;62.88;29.00;;;;;;;2.18;100.00;96109.50;1027736;28;20015;-76
2020/12/16 01:47:26;;;;;;;52.53;26.85;;;;;;;2.30;100.00;96120.78;1027762;28;20019;-77
2020/12/16 01:47:56;;;;;;;60.03;28.63;;;;;;;2.33;100.00;96120.53;1023920;29;20024;-77
2020/12/16 01:48:27;;;;;;;54.88;27.67;;;;;;;2.28;100.00;96120.88;1031942;28;20022;-78
2020/12/16 01:48:58;;;;;;;56.60;27.90;;;;;;;2.16;100.00;96108.75;1031727;28;20023;-77
2020/12/16 01:49:29;;;;;;;52.03;26.80;;;;;;;2.32;100.00;96122.34;1023905;29;20470;-78
2020/12/16 01:50:00;;;;;;;54.83;27.30;;;;;;;2.30;100.00;96121.63;1036253;28;20018;-77
2020/12/16 01:50:30;;;;;;;51.63;26.52;;;;;;;2.31;100.00;96125.91;1020369;28;20024;-77
2020/12/16 01:51:01;;;;;;;48.33;25.73;;;;;;;2.29;100.00;96122.56;1024020;29;20515;-77
2020/12/16 01:51:32;;;;;;;52.58;27.17;;;;;;;2.30;100.00;96124.25;1024194;29;20078;-77
2020/12/16 01:52:05;;;;;;;51.00;26.73;;;;;;;2.25;100.00;96123.78;1028280;28;20582;-77
2020/12/16 01:52:36;;;;;;;49.90;26.80;;;;;;;2.24;100.00;96119.47;1024197;29;20117;-77
2020/12/16 01:53:07;;;;;;;55.58;28.83;;;;;;;2.23;100.00;96120.41;1028076;28;20022;-78
2020/12/16 01:53:37;;;;;;;53.85;26.90;;;;;;;2.29;100.00;96127.81;1024335;28;20022;-77
2020/12/16 01:54:08;;;;;;;63.42;26.77;;;;;;;2.34;100.00;96125.66;1028248;28;20027;-77
2020/12/16 01:54:39;;;;;;;55.97;27.40;;;;;;;2.28;100.00;96115.66;1020356;29;20028;-78
2020/12/16 01:55:11;;;;;;;53.90;28.02;;;;;;;2.27;100.00;96121.84;1032046;28;20535;-77
2020/12/16 01:55:42;;;;;;;57.28;27.60;;;;;;;2.26;100.00;96117.56;1024208;29;20023;-78
2020/12/16 01:56:12;;;;;;;53.92;27.42;;;;;;;2.30;100.00;96113.75;1024260;29;20030;-77
2020/12/16 01:56:43;;;;;;;51.85;25.95;;;;;;;2.31;100.00;96115.41;1032311;28;20398;-76
2020/12/16 01:57:17;;;;;;;49.60;26.00;;;;;;;2.28;100.00;96115.66;1028037;28;20114;-77
2020/12/16 01:57:49;;;;;;;48.83;26.20;;;;;;;2.29;100.00;96117.31;1024138;29;20471;-77
2020/12/16 01:58:21;;;;;;;50.38;26.33;;;;;;;2.26;100.00;96112.31;1020223;29;20019;-77
2020/12/16 01:58:52;;;;;;;52.38;26.55;;;;;;;2.32;100.00;96111.84;1027804;28;20110;-77
2020/12/16 01:59:23;;;;;;;52.90;28.10;;;;;;;2.33;100.00;96113.50;1023782;29;20027;-77
2020/12/16 01:59:53;;;;;;;57.45;27.60;;;;;;;2.32;100.00;96111.84;1028069;28;20029;-78
2020/12/16 02:00:24;;;;;;;49.42;26.23;;;;;;;2.32;100.00;96108.41;1020567;28;20076;-78
2020/12/16 02:00:55;;;;;;;55.08;27.20;;;;;;;2.28;100.00;96120.88;1032836;28;20418;-78
2020/12/16 02:01:26;;;;;;;51.13;26.38;;;;;;;2.20;100.00;96105.78;1016868;28;20028;-77
2020/12/16 02:01:56;;;;;;;54.58;27.52;;;;;;;2.30;100.00;96111.16;1023918;29;20023;-78
2020/12/16 02:02:27;;;;;;;56.08;27.23;;;;;;;2.15;100.00;96094.81;1027868;28;20516;-77
2020/12/16 02:02:58;;;;;;;53.47;28.00;;;;;;;2.31;100.00;96110.16;1040181;28;20041;-77
2020/12/16 02:03:29;;;;;;;54.83;27.45;;;;;;;2.26;100.00;96120.19;1028537;28;20015;-77
2020/12/16 02:03:59;;;;;;;51.35;27.65;;;;;;;2.28;100.00;96118.28;1028611;28;20545;-77
2020/12/16 02:04:41;;;;;;;50.22;26.73;;;;;;;2.14;100.00;96094.94;1024522;28;20066;-77
2020/12/16 02:05:14;;;;;;;50.40;26.25;;;;;;;2.28;100.00;96114.81;1032421;28;20113;-77
2020/12/16 02:05:46;;;;;;;57.97;27.13;;;;;;;2.22;100.00;96116.16;1036770;28;20053;-78
2020/12/16 02:06:16;;;;;;;53.47;26.52;;;;;;;2.11;100.00;96098.66;1024634;29;20027;-77
2020/12/16 02:06:48;;;;;;;58.25;28.20;;;;;;;2.04;100.00;96089.63;1024589;29;20023;-77
2020/12/16 02:07:19;;;;;;;51.60;25.65;;;;;;;2.18;100.00;96115.56;1028501;28;20121;-77
2020/12/16 02:07:52;;;;;;;54.15;26.30;;;;;;;2.18;100.00;96110.31;1032599;28;20035;-77
2020/12/16 02:08:22;;;;;;;50.45;26.23;;;;;;;2.18;100.00;96105.06;1020838;29;20109;-78
2020/12/16 02:09:04;;;;;;;51.30;26.45;;;;;;;2.21;100.00;96110.09;1020510;29;20160;-78
2020/12/16 02:09:44;;;;;;;53.08;27.10;;;;;;;2.19;100.00;96103.28;1020558;29;20023;-76
2020/12/16 02:10:15;;;;;;;52.35;26.85;;;;;;;2.20;100.00;96113.63;1025002;29;20060;-79
2020/12/16 02:10:47;;;;;;;50.33;25.38;;;;;;;2.23;100.00;96110.78;1028772;28;20501;-78
2020/12/16 02:11:18;;;;;;;49.78;25.52;;;;;;;2.20;100.00;96112.81;1032691;28;20077;-78
2020/12/16 02:11:49;;;;;;;52.67;26.52;;;;;;;2.19;100.00;96113.75;1023919;29;20134;-77
2020/12/16 02:12:22;;;;;;;54.80;27.55;;;;;;;2.19;100.00;96119.00;1032825;28;20022;-77
2020/12/16 02:12:53;;;;;;;49.00;25.63;;;;;;;2.24;100.00;96119.47;1032470;28;20022;-77
2020/12/16 02:13:24;;;;;;;56.45;26.50;;;;;;;2.21;100.00;96110.09;1028593;28;20035;-77
2020/12/16 02:13:55;;;;;;;58.03;28.08;;;;;;;2.26;100.00;96109.69;1028878;28;20063;-77
2020/12/16 02:14:26;;;;;;;59.38;29.02;;;;;;;2.23;100.00;96113.41;1024962;29;20399;-77
2020/12/16 02:14:56;;;;;;;54.55;27.15;;;;;;;2.20;100.00;96107.56;1024702;28;20058;-77
2020/12/16 02:15:27;;;;;;;61.00;27.83;;;;;;;2.20;100.00;96118.06;1036856;28;20030;-78
2020/12/16 02:15:58;;;;;;;58.20;27.92;;;;;;;2.26;100.00;96114.94;1032915;28;20022;-77
2020/12/16 02:16:29;;;;;;;57.63;28.20;;;;;;;2.28;100.00;96118.28;1028941;28;20510;-77
2020/12/16 02:17:00;;;;;;;53.58;27.08;;;;;;;2.33;100.00;96108.25;1024796;29;20023;-77
2020/12/16 02:17:30;;;;;;;54.10;26.80;;;;;;;2.37;100.00;96107.09;1037078;28;20022;-78
2020/12/16 02:18:01;;;;;;;53.03;27.08;;;;;;;2.30;100.00;96103.28;1028864;28;20027;-77
2020/12/16 02:18:32;;;;;;;49.08;26.05;;;;;;;2.39;100.00;96105.16;1036946;28;20018;-77
2020/12/16 02:19:04;;;;;;;53.03;27.42;;;;;;;2.38;100.00;96107.91;1036929;28;20018;-77
2020/12/16 02:19:39;;;;;;;51.22;26.38;;;;;;;2.29;100.00;96092.91;1025011;28;20094;-77
2020/12/16 02:20:10;;;;;;;50.83;25.33;;;;;;;2.42;100.00;96107.56;1033097;28;20065;-77
2020/12/16 02:20:41;;;;;;;58.00;27.65;;;;;;;2.37;100.00;96093.97;1024913;28;20087;-77
2020/12/16 02:21:12;;;;;;;50.28;24.98;;;;;;;2.43;100.00;96111.81;1032728;28;20109;-77
2020/12/16 02:21:43;;;;;;;49.63;25.42;;;;;;;2.44;100.00;96110.88;1024886;28;20074;-77
2020/12/16 02:22:14;;;;;;;54.67;28.35;;;;;;;2.46;100.00;96108.13;1024950;28;20109;-78
2020/12/16 02:22:52;;;;;;;54.25;25.70;;;;;;;2.37;100.00;96082.63;1016982;29;20116;-77
2020/12/16 02:23:23;;;;;;;45.10;23.48;;;;;;;2.48;100.00;96102.78;1028629;28;20521;-77
2020/12/16 02:23:54;;;;;;;48.35;26.27;;;;;;;2.27;100.00;96072.06;1024877;28;20031;-77